sensor_id;sensor_type;location;lat;lon;timestamp;temperature;humidity
488;DHT22;16586;48.976;9.584;2022-12-05T00:00:11;5.80;68.00
488;DHT22;16586;48.976;9.584;2022-12-05T00:02:45;5.90;67.30
488;DHT22;16586;48.976;9.584;2022-12-05T00:05:12;5.90;67.40
488;DHT22;16586;48.976;9.584;2022-12-05T00:07:39;5.90;67.30
488;DHT22;16586;48.976;9.584;2022-12-05T00:10:07;5.90;66.90
488;DHT22;16586;48.976;9.584;2022-12-05T00:12:34;5.80;65.80
488;DHT22;16586;48.976;9.584;2022-12-05T00:15:02;5.70;66.40
488;DHT22;16586;48.976;9.584;2022-12-05T00:17:30;5.70;65.70
488;DHT22;16586;48.976;9.584;2022-12-05T00:19:57;5.60;66.80
488;DHT22;16586;48.976;9.584;2022-12-05T00:22:24;5.50;66.20
488;DHT22;16586;48.976;9.584;2022-12-05T00:24:51;5.50;67.40
488;DHT22;16586;48.976;9.584;2022-12-05T00:27:18;5.60;67.60
488;DHT22;16586;48.976;9.584;2022-12-05T00:29:45;5.50;67.00
488;DHT22;16586;48.976;9.584;2022-12-05T00:32:13;5.40;66.60
488;DHT22;16586;48.976;9.584;2022-12-05T00:34:40;6.20;68.00
488;DHT22;16586;48.976;9.584;2022-12-05T00:37:06;5.40;66.70
488;DHT22;16586;48.976;9.584;2022-12-05T00:39:33;5.50;66.20
488;DHT22;16586;48.976;9.584;2022-12-05T00:42:00;6.00;66.70
488;DHT22;16586;48.976;9.584;2022-12-05T00:44:27;5.50;66.50
488;DHT22;16586;48.976;9.584;2022-12-05T00:46:53;5.60;65.60
488;DHT22;16586;48.976;9.584;2022-12-05T00:49:22;5.50;66.00
488;DHT22;16586;48.976;9.584;2022-12-05T00:51:48;5.60;65.10
488;DHT22;16586;48.976;9.584;2022-12-05T00:54:16;5.80;66.20
488;DHT22;16586;48.976;9.584;2022-12-05T00:56:43;6.20;66.40
488;DHT22;16586;48.976;9.584;2022-12-05T00:59:14;7.30;68.10
488;DHT22;16586;48.976;9.584;2022-12-05T01:01:43;5.80;65.70
488;DHT22;16586;48.976;9.584;2022-12-05T01:04:12;5.80;65.80
488;DHT22;16586;48.976;9.584;2022-12-05T01:06:41;5.70;65.60
488;DHT22;16586;48.976;9.584;2022-12-05T01:09:09;5.80;65.90
488;DHT22;16586;48.976;9.584;2022-12-05T01:11:36;6.90;66.10
488;DHT22;16586;48.976;9.584;2022-12-05T01:14:03;5.90;65.10
488;DHT22;16586;48.976;9.584;2022-12-05T01:16:32;6.40;64.40
488;DHT22;16586;48.976;9.584;2022-12-05T01:19:02;5.90;63.90
488;DHT22;16586;48.976;9.584;2022-12-05T01:21:30;5.80;64.30
488;DHT22;16586;48.976;9.584;2022-12-05T01:23:58;6.00;65.10
488;DHT22;16586;48.976;9.584;2022-12-05T01:26:25;5.70;64.30
488;DHT22;16586;48.976;9.584;2022-12-05T01:28:52;5.80;63.70
488;DHT22;16586;48.976;9.584;2022-12-05T01:31:22;5.80;63.40
488;DHT22;16586;48.976;9.584;2022-12-05T01:33:50;5.80;63.30
488;DHT22;16586;48.976;9.584;2022-12-05T01:36:18;6.30;63.70
488;DHT22;16586;48.976;9.584;2022-12-05T01:38:45;5.70;62.30
488;DHT22;16586;48.976;9.584;2022-12-05T01:41:16;5.70;63.10
488;DHT22;16586;48.976;9.584;2022-12-05T01:43:53;5.50;62.20
488;DHT22;16586;48.976;9.584;2022-12-05T01:46:20;5.50;63.20
488;DHT22;16586;48.976;9.584;2022-12-05T01:48:48;5.50;63.70
488;DHT22;16586;48.976;9.584;2022-12-05T01:51:16;5.50;62.20
488;DHT22;16586;48.976;9.584;2022-12-05T01:53:43;5.30;62.10
488;DHT22;16586;48.976;9.584;2022-12-05T01:56:11;5.70;64.10
488;DHT22;16586;48.976;9.584;2022-12-05T01:58:41;5.40;64.00
488;DHT22;16586;48.976;9.584;2022-12-05T02:01:10;5.30;63.60
488;DHT22;16586;48.976;9.584;2022-12-05T02:03:38;5.30;62.70
488;DHT22;16586;48.976;9.584;2022-12-05T02:06:08;5.30;62.80
488;DHT22;16586;48.976;9.584;2022-12-05T02:08:35;6.50;64.60
488;DHT22;16586;48.976;9.584;2022-12-05T02:11:06;5.20;62.30
488;DHT22;16586;48.976;9.584;2022-12-05T02:14:02;5.30;62.50
488;DHT22;16586;48.976;9.584;2022-12-05T02:16:43;6.00;63.80
488;DHT22;16586;48.976;9.584;2022-12-05T02:22:33;6.00;62.70
488;DHT22;16586;48.976;9.584;2022-12-05T02:25:35;5.50;61.30
488;DHT22;16586;48.976;9.584;2022-12-05T02:28:20;5.40;61.20
488;DHT22;16586;48.976;9.584;2022-12-05T02:30:57;5.60;62.40
488;DHT22;16586;48.976;9.584;2022-12-05T02:33:31;5.50;62.30
488;DHT22;16586;48.976;9.584;2022-12-05T02:36:04;6.10;62.50
488;DHT22;16586;48.976;9.584;2022-12-05T02:38:37;5.70;61.50
488;DHT22;16586;48.976;9.584;2022-12-05T02:41:11;5.70;62.00
488;DHT22;16586;48.976;9.584;2022-12-05T02:43:45;5.90;61.60
488;DHT22;16586;48.976;9.584;2022-12-05T02:46:17;5.90;61.20
488;DHT22;16586;48.976;9.584;2022-12-05T02:48:48;5.90;61.20
488;DHT22;16586;48.976;9.584;2022-12-05T02:51:20;5.90;61.20
488;DHT22;16586;48.976;9.584;2022-12-05T02:53:48;5.90;60.10
488;DHT22;16586;48.976;9.584;2022-12-05T02:56:16;5.90;59.90
488;DHT22;16586;48.976;9.584;2022-12-05T02:58:49;7.20;62.20
488;DHT22;16586;48.976;9.584;2022-12-05T03:01:21;5.90;61.10
488;DHT22;16586;48.976;9.584;2022-12-05T03:03:49;5.90;61.20
488;DHT22;16586;48.976;9.584;2022-12-05T03:06:19;6.10;61.70
488;DHT22;16586;48.976;9.584;2022-12-05T03:08:50;6.10;61.30
488;DHT22;16586;48.976;9.584;2022-12-05T03:11:19;6.10;61.30
488;DHT22;16586;48.976;9.584;2022-12-05T03:13:50;6.10;61.40
488;DHT22;16586;48.976;9.584;2022-12-05T03:16:21;5.90;60.00
488;DHT22;16586;48.976;9.584;2022-12-05T03:18:52;5.80;60.10
488;DHT22;16586;48.976;9.584;2022-12-05T03:21:26;6.70;60.40
488;DHT22;16586;48.976;9.584;2022-12-05T03:24:00;6.20;60.80
488;DHT22;16586;48.976;9.584;2022-12-05T03:26:39;5.70;59.90
488;DHT22;16586;48.976;9.584;2022-12-05T03:29:24;5.90;60.50
488;DHT22;16586;48.976;9.584;2022-12-05T03:32:01;7.10;61.40
488;DHT22;16586;48.976;9.584;2022-12-05T03:34:36;5.60;60.90
488;DHT22;16586;48.976;9.584;2022-12-05T03:37:12;5.70;60.80
488;DHT22;16586;48.976;9.584;2022-12-05T03:39:44;5.60;60.80
488;DHT22;16586;48.976;9.584;2022-12-05T03:42:15;5.70;60.30
488;DHT22;16586;48.976;9.584;2022-12-05T03:44:47;5.90;61.20
488;DHT22;16586;48.976;9.584;2022-12-05T03:47:21;5.90;59.90
488;DHT22;16586;48.976;9.584;2022-12-05T03:49:53;5.90;59.90
488;DHT22;16586;48.976;9.584;2022-12-05T03:52:26;5.90;60.20
488;DHT22;16586;48.976;9.584;2022-12-05T03:54:57;5.80;60.20
488;DHT22;16586;48.976;9.584;2022-12-05T03:57:28;5.90;60.80
488;DHT22;16586;48.976;9.584;2022-12-05T03:59:59;5.90;60.00
488;DHT22;16586;48.976;9.584;2022-12-05T04:02:32;6.30;61.20
488;DHT22;16586;48.976;9.584;2022-12-05T04:05:10;5.90;60.00
488;DHT22;16586;48.976;9.584;2022-12-05T04:07:39;6.10;61.00
488;DHT22;16586;48.976;9.584;2022-12-05T04:10:13;5.90;61.10
488;DHT22;16586;48.976;9.584;2022-12-05T04:12:42;6.00;61.20
488;DHT22;16586;48.976;9.584;2022-12-05T04:15:13;6.00;60.80
488;DHT22;16586;48.976;9.584;2022-12-05T04:17:45;6.00;60.80
488;DHT22;16586;48.976;9.584;2022-12-05T04:20:15;6.70;61.90
488;DHT22;16586;48.976;9.584;2022-12-05T04:23:01;6.00;60.90
488;DHT22;16586;48.976;9.584;2022-12-05T04:25:38;6.00;61.00
488;DHT22;16586;48.976;9.584;2022-12-05T04:28:18;6.30;61.60
488;DHT22;16586;48.976;9.584;2022-12-05T04:30:49;6.20;61.10
488;DHT22;16586;48.976;9.584;2022-12-05T04:33:28;6.10;60.90
488;DHT22;16586;48.976;9.584;2022-12-05T04:36:02;6.20;61.00
488;DHT22;16586;48.976;9.584;2022-12-05T04:38:38;6.50;61.30
488;DHT22;16586;48.976;9.584;2022-12-05T04:41:09;7.00;61.30
488;DHT22;16586;48.976;9.584;2022-12-05T04:43:39;6.10;60.30
488;DHT22;16586;48.976;9.584;2022-12-05T04:46:09;6.20;61.30
488;DHT22;16586;48.976;9.584;2022-12-05T04:48:40;6.30;61.20
488;DHT22;16586;48.976;9.584;2022-12-05T04:51:12;6.20;60.90
488;DHT22;16586;48.976;9.584;2022-12-05T04:53:42;7.50;61.80
488;DHT22;16586;48.976;9.584;2022-12-05T04:56:11;6.20;60.40
488;DHT22;16586;48.976;9.584;2022-12-05T04:58:40;6.30;61.10
488;DHT22;16586;48.976;9.584;2022-12-05T05:01:11;6.20;60.40
488;DHT22;16586;48.976;9.584;2022-12-05T05:03:43;6.50;60.70
488;DHT22;16586;48.976;9.584;2022-12-05T05:06:12;6.30;60.80
488;DHT22;16586;48.976;9.584;2022-12-05T05:08:46;6.20;60.70
488;DHT22;16586;48.976;9.584;2022-12-05T05:11:15;6.50;60.20
488;DHT22;16586;48.976;9.584;2022-12-05T05:13:42;7.10;60.40
488;DHT22;16586;48.976;9.584;2022-12-05T05:16:13;6.20;60.50
488;DHT22;16586;48.976;9.584;2022-12-05T05:18:44;6.20;60.40
488;DHT22;16586;48.976;9.584;2022-12-05T05:21:16;6.30;60.20
488;DHT22;16586;48.976;9.584;2022-12-05T05:23:44;6.30;60.00
488;DHT22;16586;48.976;9.584;2022-12-05T05:26:11;6.20;60.30
488;DHT22;16586;48.976;9.584;2022-12-05T05:28:38;6.20;60.10
488;DHT22;16586;48.976;9.584;2022-12-05T05:31:05;6.20;61.00
488;DHT22;16586;48.976;9.584;2022-12-05T05:33:33;6.20;61.10
488;DHT22;16586;48.976;9.584;2022-12-05T05:36:03;6.30;60.60
488;DHT22;16586;48.976;9.584;2022-12-05T05:38:33;6.10;60.20
488;DHT22;16586;48.976;9.584;2022-12-05T05:41:00;6.20;60.80
488;DHT22;16586;48.976;9.584;2022-12-05T05:43:27;6.10;60.10
488;DHT22;16586;48.976;9.584;2022-12-05T05:45:54;6.10;61.40
488;DHT22;16586;48.976;9.584;2022-12-05T05:48:21;6.10;61.20
488;DHT22;16586;48.976;9.584;2022-12-05T05:50:48;7.00;62.70
488;DHT22;16586;48.976;9.584;2022-12-05T05:53:16;6.60;61.90
488;DHT22;16586;48.976;9.584;2022-12-05T05:55:43;6.10;59.90
488;DHT22;16586;48.976;9.584;2022-12-05T05:58:10;6.10;60.50
488;DHT22;16586;48.976;9.584;2022-12-05T06:00:36;6.20;62.00
488;DHT22;16586;48.976;9.584;2022-12-05T06:03:03;6.20;62.20
488;DHT22;16586;48.976;9.584;2022-12-05T06:05:30;6.20;61.50
488;DHT22;16586;48.976;9.584;2022-12-05T06:07:57;6.20;61.50
488;DHT22;16586;48.976;9.584;2022-12-05T06:10:25;6.30;61.50
488;DHT22;16586;48.976;9.584;2022-12-05T06:12:52;6.30;60.10
488;DHT22;16586;48.976;9.584;2022-12-05T06:15:18;6.40;59.80
488;DHT22;16586;48.976;9.584;2022-12-05T06:17:45;6.70;60.40
488;DHT22;16586;48.976;9.584;2022-12-05T06:20:12;6.70;60.40
488;DHT22;16586;48.976;9.584;2022-12-05T06:22:39;6.20;59.40
488;DHT22;16586;48.976;9.584;2022-12-05T06:25:07;6.10;60.00
488;DHT22;16586;48.976;9.584;2022-12-05T06:27:35;5.90;60.10
488;DHT22;16586;48.976;9.584;2022-12-05T06:30:03;5.70;62.00
488;DHT22;16586;48.976;9.584;2022-12-05T06:32:30;5.80;62.10
488;DHT22;16586;48.976;9.584;2022-12-05T06:34:56;5.90;61.00
488;DHT22;16586;48.976;9.584;2022-12-05T06:37:23;6.00;60.90
488;DHT22;16586;48.976;9.584;2022-12-05T06:39:50;5.90;62.00
488;DHT22;16586;48.976;9.584;2022-12-05T06:42:17;6.50;63.10
488;DHT22;16586;48.976;9.584;2022-12-05T06:44:47;6.00;61.60
488;DHT22;16586;48.976;9.584;2022-12-05T06:47:14;6.00;62.50
488;DHT22;16586;48.976;9.584;2022-12-05T06:49:41;6.50;62.50
488;DHT22;16586;48.976;9.584;2022-12-05T06:52:08;6.10;61.60
488;DHT22;16586;48.976;9.584;2022-12-05T06:54:35;6.20;62.30
488;DHT22;16586;48.976;9.584;2022-12-05T06:57:02;6.30;62.30
488;DHT22;16586;48.976;9.584;2022-12-05T06:59:28;6.20;61.60
488;DHT22;16586;48.976;9.584;2022-12-05T07:01:57;6.20;61.80
488;DHT22;16586;48.976;9.584;2022-12-05T07:04:23;6.20;61.40
488;DHT22;16586;48.976;9.584;2022-12-05T07:06:50;6.30;61.90
488;DHT22;16586;48.976;9.584;2022-12-05T07:09:19;6.30;61.50
488;DHT22;16586;48.976;9.584;2022-12-05T07:11:46;6.20;61.70
488;DHT22;16586;48.976;9.584;2022-12-05T07:14:13;6.10;61.00
488;DHT22;16586;48.976;9.584;2022-12-05T07:16:40;6.00;61.60
488;DHT22;16586;48.976;9.584;2022-12-05T07:19:08;6.30;62.60
488;DHT22;16586;48.976;9.584;2022-12-05T07:21:35;6.10;62.10
488;DHT22;16586;48.976;9.584;2022-12-05T07:24:02;6.20;62.20
488;DHT22;16586;48.976;9.584;2022-12-05T07:26:29;6.20;61.90
488;DHT22;16586;48.976;9.584;2022-12-05T07:28:56;6.30;61.70
488;DHT22;16586;48.976;9.584;2022-12-05T07:31:23;6.40;62.30
488;DHT22;16586;48.976;9.584;2022-12-05T07:33:50;6.40;61.70
488;DHT22;16586;48.976;9.584;2022-12-05T07:36:21;6.40;60.70
488;DHT22;16586;48.976;9.584;2022-12-05T07:38:53;6.40;60.60
488;DHT22;16586;48.976;9.584;2022-12-05T07:41:23;6.50;60.80
488;DHT22;16586;48.976;9.584;2022-12-05T07:43:50;6.50;60.20
488;DHT22;16586;48.976;9.584;2022-12-05T07:46:17;6.50;59.80
488;DHT22;16586;48.976;9.584;2022-12-05T07:48:44;6.60;59.80
488;DHT22;16586;48.976;9.584;2022-12-05T07:51:12;6.50;60.40
488;DHT22;16586;48.976;9.584;2022-12-05T07:53:41;6.50;60.80
488;DHT22;16586;48.976;9.584;2022-12-05T07:56:19;6.50;60.20
488;DHT22;16586;48.976;9.584;2022-12-05T07:58:59;6.00;63.20
488;DHT22;16586;48.976;9.584;2022-12-05T08:01:31;6.50;63.20
488;DHT22;16586;48.976;9.584;2022-12-05T08:04:05;7.00;63.90
488;DHT22;16586;48.976;9.584;2022-12-05T08:06:33;6.80;60.90
488;DHT22;16586;48.976;9.584;2022-12-05T08:09:02;6.60;60.50
488;DHT22;16586;48.976;9.584;2022-12-05T08:11:30;6.60;60.50
488;DHT22;16586;48.976;9.584;2022-12-05T08:14:00;6.60;60.60
488;DHT22;16586;48.976;9.584;2022-12-05T08:16:29;6.90;60.90
488;DHT22;16586;48.976;9.584;2022-12-05T08:18:57;6.50;60.00
488;DHT22;16586;48.976;9.584;2022-12-05T08:21:24;6.60;61.20
488;DHT22;16586;48.976;9.584;2022-12-05T08:23:51;6.60;61.10
488;DHT22;16586;48.976;9.584;2022-12-05T08:26:21;6.70;61.40
488;DHT22;16586;48.976;9.584;2022-12-05T08:28:51;6.80;60.50
488;DHT22;16586;48.976;9.584;2022-12-05T08:31:19;6.80;60.50
488;DHT22;16586;48.976;9.584;2022-12-05T08:33:48;6.90;60.00
488;DHT22;16586;48.976;9.584;2022-12-05T08:36:15;6.90;60.00
488;DHT22;16586;48.976;9.584;2022-12-05T08:38:43;6.80;59.10
488;DHT22;16586;48.976;9.584;2022-12-05T08:41:12;6.70;59.80
488;DHT22;16586;48.976;9.584;2022-12-05T08:43:40;6.60;60.80
488;DHT22;16586;48.976;9.584;2022-12-05T08:46:08;6.70;60.60
488;DHT22;16586;48.976;9.584;2022-12-05T08:48:35;6.70;60.10
488;DHT22;16586;48.976;9.584;2022-12-05T08:51:04;6.70;59.60
488;DHT22;16586;48.976;9.584;2022-12-05T08:53:32;6.60;61.10
488;DHT22;16586;48.976;9.584;2022-12-05T08:56:00;6.70;61.40
488;DHT22;16586;48.976;9.584;2022-12-05T08:58:27;6.50;60.90
488;DHT22;16586;48.976;9.584;2022-12-05T09:01:02;6.40;60.90
488;DHT22;16586;48.976;9.584;2022-12-05T09:03:29;7.50;62.50
488;DHT22;16586;48.976;9.584;2022-12-05T09:06:04;6.60;62.00
488;DHT22;16586;48.976;9.584;2022-12-05T09:08:32;6.50;61.30
488;DHT22;16586;48.976;9.584;2022-12-05T09:10:59;6.50;61.70
488;DHT22;16586;48.976;9.584;2022-12-05T09:13:25;6.80;61.80
488;DHT22;16586;48.976;9.584;2022-12-05T09:15:52;6.80;60.30
488;DHT22;16586;48.976;9.584;2022-12-05T09:18:20;6.90;60.90
488;DHT22;16586;48.976;9.584;2022-12-05T09:20:47;7.00;61.20
488;DHT22;16586;48.976;9.584;2022-12-05T09:23:14;7.10;60.90
488;DHT22;16586;48.976;9.584;2022-12-05T09:25:40;7.10;61.00
488;DHT22;16586;48.976;9.584;2022-12-05T09:28:07;7.00;60.20
488;DHT22;16586;48.976;9.584;2022-12-05T09:30:34;8.20;62.10
488;DHT22;16586;48.976;9.584;2022-12-05T09:33:01;7.00;59.80
488;DHT22;16586;48.976;9.584;2022-12-05T09:35:29;7.10;59.50
488;DHT22;16586;48.976;9.584;2022-12-05T09:37:56;7.20;60.30
488;DHT22;16586;48.976;9.584;2022-12-05T09:40:23;7.20;60.80
488;DHT22;16586;48.976;9.584;2022-12-05T09:42:57;7.30;60.40
488;DHT22;16586;48.976;9.584;2022-12-05T09:45:31;7.40;60.40
488;DHT22;16586;48.976;9.584;2022-12-05T09:48:04;7.50;60.70
488;DHT22;16586;48.976;9.584;2022-12-05T09:50:42;8.00;60.50
488;DHT22;16586;48.976;9.584;2022-12-05T09:53:15;7.60;60.30
488;DHT22;16586;48.976;9.584;2022-12-05T09:55:47;7.60;60.00
488;DHT22;16586;48.976;9.584;2022-12-05T09:58:20;7.70;60.30
488;DHT22;16586;48.976;9.584;2022-12-05T10:00:50;7.70;59.80
488;DHT22;16586;48.976;9.584;2022-12-05T10:03:24;7.70;59.40
488;DHT22;16586;48.976;9.584;2022-12-05T10:06:02;7.60;59.60
488;DHT22;16586;48.976;9.584;2022-12-05T10:08:42;7.70;59.70
488;DHT22;16586;48.976;9.584;2022-12-05T10:11:17;7.70;59.70
488;DHT22;16586;48.976;9.584;2022-12-05T10:13:51;7.60;59.30
488;DHT22;16586;48.976;9.584;2022-12-05T10:16:28;7.60;59.60
488;DHT22;16586;48.976;9.584;2022-12-05T10:18:59;7.60;59.10
488;DHT22;16586;48.976;9.584;2022-12-05T10:21:32;7.60;59.60
488;DHT22;16586;48.976;9.584;2022-12-05T10:24:01;7.60;59.40
488;DHT22;16586;48.976;9.584;2022-12-05T10:26:32;7.60;59.40
488;DHT22;16586;48.976;9.584;2022-12-05T10:29:08;7.90;58.60
488;DHT22;16586;48.976;9.584;2022-12-05T10:31:38;7.70;58.70
488;DHT22;16586;48.976;9.584;2022-12-05T10:34:14;8.00;58.60
488;DHT22;16586;48.976;9.584;2022-12-05T10:36:52;7.70;58.40
488;DHT22;16586;48.976;9.584;2022-12-05T10:39:20;7.60;58.30
488;DHT22;16586;48.976;9.584;2022-12-05T10:41:47;7.70;59.00
488;DHT22;16586;48.976;9.584;2022-12-05T10:44:14;7.50;59.10
488;DHT22;16586;48.976;9.584;2022-12-05T10:46:41;7.50;59.30
488;DHT22;16586;48.976;9.584;2022-12-05T10:49:10;7.30;59.80
488;DHT22;16586;48.976;9.584;2022-12-05T10:51:37;7.40;60.50
488;DHT22;16586;48.976;9.584;2022-12-05T10:54:14;7.50;59.70
488;DHT22;16586;48.976;9.584;2022-12-05T10:56:43;7.50;60.00
488;DHT22;16586;48.976;9.584;2022-12-05T10:59:12;8.20;61.00
488;DHT22;16586;48.976;9.584;2022-12-05T11:01:45;7.60;60.80
488;DHT22;16586;48.976;9.584;2022-12-05T11:04:28;7.40;60.50
488;DHT22;16586;48.976;9.584;2022-12-05T11:06:57;7.40;60.80
488;DHT22;16586;48.976;9.584;2022-12-05T11:09:27;7.50;60.60
488;DHT22;16586;48.976;9.584;2022-12-05T11:12:13;7.40;60.10
488;DHT22;16586;48.976;9.584;2022-12-05T11:14:53;7.30;60.40
488;DHT22;16586;48.976;9.584;2022-12-05T11:17:24;7.30;60.30
488;DHT22;16586;48.976;9.584;2022-12-05T11:19:51;7.20;60.90
488;DHT22;16586;48.976;9.584;2022-12-05T11:22:18;8.60;62.70
488;DHT22;16586;48.976;9.584;2022-12-05T11:24:47;7.50;61.60
488;DHT22;16586;48.976;9.584;2022-12-05T11:27:26;7.00;61.70
488;DHT22;16586;48.976;9.584;2022-12-05T11:29:56;6.90;63.50
488;DHT22;16586;48.976;9.584;2022-12-05T11:32:25;7.10;63.00
488;DHT22;16586;48.976;9.584;2022-12-05T11:34:57;7.10;62.90
488;DHT22;16586;48.976;9.584;2022-12-05T11:37:29;7.00;62.40
488;DHT22;16586;48.976;9.584;2022-12-05T11:39:59;7.00;63.40
488;DHT22;16586;48.976;9.584;2022-12-05T11:42:36;6.90;63.20
488;DHT22;16586;48.976;9.584;2022-12-05T11:45:24;7.10;63.00
488;DHT22;16586;48.976;9.584;2022-12-05T11:48:20;7.20;63.20
488;DHT22;16586;48.976;9.584;2022-12-05T11:51:00;7.30;63.40
488;DHT22;16586;48.976;9.584;2022-12-05T11:53:42;7.30;62.90
488;DHT22;16586;48.976;9.584;2022-12-05T11:56:21;7.70;63.10
488;DHT22;16586;48.976;9.584;2022-12-05T11:59:01;7.50;62.90
488;DHT22;16586;48.976;9.584;2022-12-05T12:01:40;7.30;62.80
488;DHT22;16586;48.976;9.584;2022-12-05T12:04:31;7.30;62.00
488;DHT22;16586;48.976;9.584;2022-12-05T12:07:13;7.40;62.60
488;DHT22;16586;48.976;9.584;2022-12-05T12:09:50;7.40;62.50
488;DHT22;16586;48.976;9.584;2022-12-05T12:12:26;7.50;62.90
488;DHT22;16586;48.976;9.584;2022-12-05T12:15:05;7.40;61.50
488;DHT22;16586;48.976;9.584;2022-12-05T12:17:47;7.30;61.80
488;DHT22;16586;48.976;9.584;2022-12-05T12:20:27;7.40;62.10
488;DHT22;16586;48.976;9.584;2022-12-05T12:23:11;7.50;62.50
488;DHT22;16586;48.976;9.584;2022-12-05T12:25:45;6.60;60.80
488;DHT22;16586;48.976;9.584;2022-12-05T12:28:27;7.80;61.90
488;DHT22;16586;48.976;9.584;2022-12-05T12:31:05;7.70;61.60
488;DHT22;16586;48.976;9.584;2022-12-05T12:33:36;7.80;61.60
488;DHT22;16586;48.976;9.584;2022-12-05T12:36:14;7.90;61.70
488;DHT22;16586;48.976;9.584;2022-12-05T12:42:05;7.90;61.30
488;DHT22;16586;48.976;9.584;2022-12-05T12:45:01;7.80;61.10
488;DHT22;16586;48.976;9.584;2022-12-05T12:47:38;7.80;61.20
488;DHT22;16586;48.976;9.584;2022-12-05T12:50:13;7.80;61.10
488;DHT22;16586;48.976;9.584;2022-12-05T12:53:11;7.80;61.90
488;DHT22;16586;48.976;9.584;2022-12-05T12:55:54;7.70;61.00
488;DHT22;16586;48.976;9.584;2022-12-05T12:58:41;7.60;61.40
488;DHT22;16586;48.976;9.584;2022-12-05T13:01:19;7.60;61.70
488;DHT22;16586;48.976;9.584;2022-12-05T13:03:51;7.60;61.30
488;DHT22;16586;48.976;9.584;2022-12-05T13:06:23;7.40;61.60
488;DHT22;16586;48.976;9.584;2022-12-05T13:08:55;7.30;62.40
488;DHT22;16586;48.976;9.584;2022-12-05T13:11:24;7.90;62.80
488;DHT22;16586;48.976;9.584;2022-12-05T13:13:53;7.70;62.00
488;DHT22;16586;48.976;9.584;2022-12-05T13:16:24;7.80;60.70
488;DHT22;16586;48.976;9.584;2022-12-05T13:18:54;8.60;61.10
488;DHT22;16586;48.976;9.584;2022-12-05T13:21:22;7.70;61.10
488;DHT22;16586;48.976;9.584;2022-12-05T13:23:51;7.80;61.40
488;DHT22;16586;48.976;9.584;2022-12-05T13:26:19;8.00;60.80
488;DHT22;16586;48.976;9.584;2022-12-05T13:28:51;8.10;60.40
488;DHT22;16586;48.976;9.584;2022-12-05T13:31:19;8.00;59.70
488;DHT22;16586;48.976;9.584;2022-12-05T13:34:00;8.10;59.70
488;DHT22;16586;48.976;9.584;2022-12-05T13:36:27;8.10;59.60
488;DHT22;16586;48.976;9.584;2022-12-05T13:39:21;8.00;60.30
488;DHT22;16586;48.976;9.584;2022-12-05T13:42:19;8.20;60.60
488;DHT22;16586;48.976;9.584;2022-12-05T13:44:49;8.20;60.30
488;DHT22;16586;48.976;9.584;2022-12-05T13:47:25;8.20;60.90
488;DHT22;16586;48.976;9.584;2022-12-05T13:50:00;8.30;60.50
488;DHT22;16586;48.976;9.584;2022-12-05T13:52:30;8.30;60.30
488;DHT22;16586;48.976;9.584;2022-12-05T13:55:00;8.50;60.00
488;DHT22;16586;48.976;9.584;2022-12-05T13:57:50;8.40;58.30
488;DHT22;16586;48.976;9.584;2022-12-05T14:00:31;8.40;58.90
488;DHT22;16586;48.976;9.584;2022-12-05T14:03:05;8.50;58.90
488;DHT22;16586;48.976;9.584;2022-12-05T14:05:52;8.40;58.80
488;DHT22;16586;48.976;9.584;2022-12-05T14:11:22;8.30;58.70
488;DHT22;16586;48.976;9.584;2022-12-05T14:13:49;8.10;58.90
488;DHT22;16586;48.976;9.584;2022-12-05T14:16:46;8.20;58.80
488;DHT22;16586;48.976;9.584;2022-12-05T14:19:39;8.20;58.80
488;DHT22;16586;48.976;9.584;2022-12-05T14:22:26;8.00;58.50
488;DHT22;16586;48.976;9.584;2022-12-05T14:25:02;8.30;58.20
488;DHT22;16586;48.976;9.584;2022-12-05T14:27:42;8.30;58.60
488;DHT22;16586;48.976;9.584;2022-12-05T14:30:20;8.30;58.10
488;DHT22;16586;48.976;9.584;2022-12-05T14:32:49;8.20;57.80
488;DHT22;16586;48.976;9.584;2022-12-05T14:35:22;8.70;59.10
488;DHT22;16586;48.976;9.584;2022-12-05T14:37:54;8.00;58.60
488;DHT22;16586;48.976;9.584;2022-12-05T14:40:27;8.20;59.10
488;DHT22;16586;48.976;9.584;2022-12-05T14:42:57;8.30;59.40
488;DHT22;16586;48.976;9.584;2022-12-05T14:45:33;7.80;59.20
488;DHT22;16586;48.976;9.584;2022-12-05T14:48:04;7.90;59.70
488;DHT22;16586;48.976;9.584;2022-12-05T14:50:40;7.80;60.30
488;DHT22;16586;48.976;9.584;2022-12-05T14:53:34;7.80;60.60
488;DHT22;16586;48.976;9.584;2022-12-05T14:56:12;7.80;60.80
488;DHT22;16586;48.976;9.584;2022-12-05T14:58:44;7.80;60.60
488;DHT22;16586;48.976;9.584;2022-12-05T15:01:15;7.80;60.60
488;DHT22;16586;48.976;9.584;2022-12-05T15:04:04;7.80;61.20
488;DHT22;16586;48.976;9.584;2022-12-05T15:06:33;7.80;61.20
488;DHT22;16586;48.976;9.584;2022-12-05T15:09:18;7.70;61.70
488;DHT22;16586;48.976;9.584;2022-12-05T15:11:47;7.60;61.60
488;DHT22;16586;48.976;9.584;2022-12-05T15:14:18;7.70;62.30
488;DHT22;16586;48.976;9.584;2022-12-05T15:16:49;7.70;61.00
488;DHT22;16586;48.976;9.584;2022-12-05T15:19:20;7.80;61.30
488;DHT22;16586;48.976;9.584;2022-12-05T15:21:51;7.80;62.50
488;DHT22;16586;48.976;9.584;2022-12-05T15:24:22;7.70;61.90
488;DHT22;16586;48.976;9.584;2022-12-05T15:26:51;7.70;61.50
488;DHT22;16586;48.976;9.584;2022-12-05T15:29:24;7.60;60.70
488;DHT22;16586;48.976;9.584;2022-12-05T15:31:54;8.10;61.70
488;DHT22;16586;48.976;9.584;2022-12-05T15:34:26;7.40;60.80
488;DHT22;16586;48.976;9.584;2022-12-05T15:36:57;7.50;61.70
488;DHT22;16586;48.976;9.584;2022-12-05T15:39:26;7.30;61.80
488;DHT22;16586;48.976;9.584;2022-12-05T15:41:56;7.50;62.80
488;DHT22;16586;48.976;9.584;2022-12-05T15:44:27;7.50;62.20
488;DHT22;16586;48.976;9.584;2022-12-05T15:46:55;7.60;62.00
488;DHT22;16586;48.976;9.584;2022-12-05T15:49:27;7.80;62.40
488;DHT22;16586;48.976;9.584;2022-12-05T15:51:57;7.60;62.70
488;DHT22;16586;48.976;9.584;2022-12-05T15:54:29;8.10;62.80
488;DHT22;16586;48.976;9.584;2022-12-05T15:57:00;7.60;61.10
488;DHT22;16586;48.976;9.584;2022-12-05T15:59:33;7.70;61.60
488;DHT22;16586;48.976;9.584;2022-12-05T16:02:14;7.70;61.40
488;DHT22;16586;48.976;9.584;2022-12-05T16:04:46;7.50;61.50
488;DHT22;16586;48.976;9.584;2022-12-05T16:07:18;7.70;61.40
488;DHT22;16586;48.976;9.584;2022-12-05T16:09:49;7.60;61.70
488;DHT22;16586;48.976;9.584;2022-12-05T16:12:25;7.60;62.50
488;DHT22;16586;48.976;9.584;2022-12-05T16:14:54;7.60;61.90
488;DHT22;16586;48.976;9.584;2022-12-05T16:17:22;7.60;62.90
488;DHT22;16586;48.976;9.584;2022-12-05T16:19:49;7.70;62.30
488;DHT22;16586;48.976;9.584;2022-12-05T16:22:22;7.70;62.50
488;DHT22;16586;48.976;9.584;2022-12-05T16:25:00;7.60;61.80
488;DHT22;16586;48.976;9.584;2022-12-05T16:27:28;7.60;61.90
488;DHT22;16586;48.976;9.584;2022-12-05T16:30:06;7.50;62.10
488;DHT22;16586;48.976;9.584;2022-12-05T16:32:36;7.50;62.10
488;DHT22;16586;48.976;9.584;2022-12-05T16:35:28;7.60;62.40
488;DHT22;16586;48.976;9.584;2022-12-05T16:38:12;8.50;62.50
488;DHT22;16586;48.976;9.584;2022-12-05T16:40:49;7.50;61.60
488;DHT22;16586;48.976;9.584;2022-12-05T16:43:22;7.50;62.10
488;DHT22;16586;48.976;9.584;2022-12-05T16:45:50;7.60;61.90
488;DHT22;16586;48.976;9.584;2022-12-05T16:48:22;7.60;61.90
488;DHT22;16586;48.976;9.584;2022-12-05T16:50:51;7.60;62.30
488;DHT22;16586;48.976;9.584;2022-12-05T16:53:22;8.80;63.20
488;DHT22;16586;48.976;9.584;2022-12-05T16:55:54;7.70;61.90